Time;durP1;ratioP1;P1;durP2;ratioP2;P2;SDS_P1;SDS_P2;PMS_P1;PMS_P2;Temp;Humidity;BMP_temperature;BMP_pressure;BME280_temperature;BME280_humidity;BME280_pressure;Samples;Min_cycle;Max_cycle;Signal;HPM_P1;HPM_P2
2023/12/24 00:01:48;;;;;;;1.77;1.00;;;4.60;91.00;;;;;;5116627;27;20208;-74
2023/12/24 00:04:15;;;;;;;1.07;0.97;;;4.60;91.10;;;;;;5082861;28;20570;-75
2023/12/24 00:06:44;;;;;;;1.20;0.80;;;4.50;91.10;;;;;;5078183;28;20664;-74
2023/12/24 00:09:11;;;;;;;1.40;0.80;;;4.50;91.20;;;;;;5086702;28;20220;-74
2023/12/24 00:11:38;;;;;;;1.00;0.90;;;4.50;91.20;;;;;;5113111;28;20300;-74
2023/12/24 00:14:05;;;;;;;1.37;1.17;;;4.60;91.30;;;;;;5109981;28;20630;-75
2023/12/24 00:16:32;;;;;;;2.30;1.00;;;4.60;91.30;;;;;;5106483;28;20267;-75
2023/12/24 00:18:59;;;;;;;1.00;0.93;;;4.60;91.30;;;;;;5096928;28;20202;-74
2023/12/24 00:21:26;;;;;;;0.80;0.80;;;4.60;91.40;;;;;;5108012;28;20258;-75
2023/12/24 00:23:54;;;;;;;1.27;1.00;;;4.50;91.40;;;;;;5083231;28;20213;-75
2023/12/24 00:26:21;;;;;;;1.27;0.97;;;4.50;91.80;;;;;;5100990;28;20197;-75
2023/12/24 00:28:50;;;;;;;4.00;1.10;;;4.50;91.50;;;;;;5106045;28;20293;-75
2023/12/24 00:31:18;;;;;;;1.83;0.83;;;4.60;91.60;;;;;;5081978;28;20467;-75
2023/12/24 00:33:45;;;;;;;4.50;0.93;;;4.50;91.60;;;;;;5110453;27;20210;-76
2023/12/24 00:36:12;;;;;;;1.10;0.93;;;4.50;91.70;;;;;;5098671;28;20207;-75
2023/12/24 00:38:39;;;;;;;1.10;1.00;;;4.50;91.70;;;;;;5110903;28;20210;-75
2023/12/24 00:41:07;;;;;;;0.70;0.70;;;4.50;91.80;;;;;;5104934;28;20196;-75
2023/12/24 00:43:34;;;;;;;0.93;0.83;;;4.60;91.80;;;;;;5110969;28;20216;-75
2023/12/24 00:46:01;;;;;;;0.90;0.70;;;4.60;91.90;;;;;;5109337;27;20201;-75
2023/12/24 00:48:28;;;;;;;1.10;1.00;;;4.50;91.90;;;;;;5113313;28;20523;-75
2023/12/24 00:50:56;;;;;;;0.70;0.70;;;4.50;92.00;;;;;;5113422;28;20286;-74
2023/12/24 00:53:23;;;;;;;1.43;0.80;;;4.50;92.00;;;;;;5095053;28;20209;-74
2023/12/24 00:55:50;;;;;;;0.77;0.63;;;4.50;92.10;;;;;;5114644;27;20280;-74
2023/12/24 00:58:18;;;;;;;2.50;0.70;;;4.50;92.20;;;;;;5095260;28;20290;-74
2023/12/24 01:00:46;;;;;;;0.87;0.60;;;4.50;92.20;;;;;;5112383;28;20193;-74
2023/12/24 01:03:14;;;;;;;0.60;0.60;;;4.50;92.30;;;;;;5113600;28;20193;-74
2023/12/24 01:05:41;;;;;;;1.87;0.80;;;4.50;92.30;;;;;;5094434;27;20201;-74
2023/12/24 01:08:08;;;;;;;2.33;0.77;;;4.50;92.30;;;;;;5093799;28;20765;-74
2023/12/24 01:10:35;;;;;;;0.83;0.77;;;4.60;92.40;;;;;;5099314;28;20597;-74
2023/12/24 01:13:03;;;;;;;1.37;0.93;;;4.60;92.40;;;;;;5105027;28;20296;-74
2023/12/24 01:15:31;;;;;;;0.97;0.70;;;4.60;92.50;;;;;;5085436;28;20209;-73
2023/12/24 01:17:58;;;;;;;1.00;0.90;;;4.70;92.60;;;;;;5102686;28;20212;-73
2023/12/24 01:20:25;;;;;;;1.17;0.90;;;4.60;92.50;;;;;;5113029;28;20700;-74
2023/12/24 01:22:53;;;;;;;2.00;1.20;;;4.70;92.70;;;;;;5107415;28;20521;-74
2023/12/24 01:25:20;;;;;;;2.20;1.10;;;4.70;93.10;;;;;;5101717;28;20195;-75
2023/12/24 01:27:47;;;;;;;1.53;1.17;;;4.80;92.80;;;;;;5083154;28;20667;-74
2023/12/24 01:30:14;;;;;;;2.07;1.37;;;4.80;92.80;;;;;;5099003;28;20239;-74
2023/12/24 01:32:42;;;;;;;1.53;1.10;;;4.80;92.80;;;;;;5092537;28;20198;-74
2023/12/24 01:35:09;;;;;;;1.43;1.10;;;4.80;92.80;;;;;;5090463;28;20733;-74
2023/12/24 01:37:36;;;;;;;1.10;1.00;;;4.80;92.90;;;;;;5095971;28;20309;-74
2023/12/24 01:40:04;;;;;;;1.70;1.30;;;4.70;92.90;;;;;;5112758;28;20198;-74
2023/12/24 01:42:31;;;;;;;1.27;1.17;;;4.70;93.00;;;;;;5089344;28;20198;-74
2023/12/24 01:44:58;;;;;;;2.10;1.40;;;4.60;93.00;;;;;;5086077;28;20200;-74
2023/12/24 01:47:26;;;;;;;2.07;1.33;;;4.60;93.10;;;;;;5086312;28;20199;-74
2023/12/24 01:49:55;;;;;;;1.73;1.40;;;4.60;93.10;;;;;;5088253;28;20227;-74
2023/12/24 01:52:22;;;;;;;4.00;1.30;;;4.60;93.10;;;;;;5110915;27;20592;-74
2023/12/24 01:54:51;;;;;;;2.10;1.30;;;4.60;93.10;;;;;;5111833;28;20626;-75
2023/12/24 01:57:18;;;;;;;1.33;1.10;;;4.70;93.20;;;;;;5112196;27;20215;-75
2023/12/24 01:59:45;;;;;;;1.20;1.10;;;4.60;93.20;;;;;;5110188;28;20695;-75
2023/12/24 02:02:13;;;;;;;1.50;1.20;;;4.60;93.20;;;;;;5106957;28;20207;-75
2023/12/24 02:04:40;;;;;;;1.27;1.10;;;4.50;93.20;;;;;;5086111;28;20215;-74
2023/12/24 02:07:11;;;;;;;1.20;1.10;;;4.50;93.20;;;;;;5096793;27;20224;-75
2023/12/24 02:09:39;;;;;;;2.33;1.30;;;4.50;93.30;;;;;;5093892;28;20220;-75
2023/12/24 02:12:06;;;;;;;1.10;1.00;;;4.40;93.30;;;;;;5088483;28;20206;-75
2023/12/24 02:14:33;;;;;;;1.47;1.00;;;4.40;93.40;;;;;;5111896;28;20324;-75
2023/12/24 02:17:02;;;;;;;1.23;1.10;;;4.40;93.40;;;;;;5111456;28;20215;-74
2023/12/24 02:19:29;;;;;;;1.10;1.00;;;4.40;93.40;;;;;;5093817;28;20216;-74
2023/12/24 02:21:58;;;;;;;2.47;1.23;;;4.40;93.40;;;;;;5093180;27;20663;-75
2023/12/24 02:24:25;;;;;;;2.23;1.17;;;4.40;93.50;;;;;;5083850;28;20201;-74
2023/12/24 02:26:59;;;;;;;3.80;1.40;;;4.30;93.40;;;;;;5087443;27;20691;-75
2023/12/24 02:29:28;;;;;;;1.03;0.90;;;4.40;93.50;;;;;;5115020;27;20335;-75
2023/12/24 02:32:02;;;;;;;2.27;1.17;;;4.30;93.50;;;;;;5100312;27;20201;-74
2023/12/24 02:34:32;;;;;;;2.20;1.13;;;4.30;93.50;;;;;;5107074;28;20200;-74
2023/12/24 02:37:01;;;;;;;0.93;0.90;;;4.30;93.60;;;;;;5078554;27;20313;-74
2023/12/24 02:39:28;;;;;;;1.30;1.20;;;4.20;93.60;;;;;;5103238;27;20251;-74
2023/12/24 02:41:55;;;;;;;2.10;1.43;;;4.20;93.70;;;;;;5108645;27;20220;-75
2023/12/24 02:44:22;;;;;;;1.87;1.30;;;4.20;93.70;;;;;;5096556;28;20219;-75
2023/12/24 02:46:49;;;;;;;1.90;1.40;;;4.20;93.80;;;;;;5097452;28;20197;-74
2023/12/24 02:49:18;;;;;;;3.07;1.23;;;4.10;93.80;;;;;;5103158;28;20716;-74
2023/12/24 02:51:45;;;;;;;2.40;1.30;;;4.20;93.80;;;;;;5109897;28;20643;-75
2023/12/24 02:54:13;;;;;;;5.10;1.60;;;4.20;93.80;;;;;;5109939;28;20210;-75
2023/12/24 02:56:40;;;;;;;2.50;1.47;;;4.20;93.80;;;;;;5106274;28;20201;-74
2023/12/24 02:59:07;;;;;;;3.57;1.40;;;4.20;93.80;;;;;;5106760;27;20267;-75
2023/12/24 03:01:34;;;;;;;2.13;1.10;;;4.20;93.80;;;;;;5083407;28;20291;-75
2023/12/24 03:04:04;;;;;;;1.70;1.20;;;4.20;93.80;;;;;;5114186;27;20277;-75
2023/12/24 03:06:31;;;;;;;2.23;1.00;;;4.10;93.80;;;;;;5104051;28;20201;-74
2023/12/24 03:08:57;;;;;;;1.67;0.90;;;4.10;93.80;;;;;;5097458;28;20637;-75
2023/12/24 03:11:26;;;;;;;1.03;0.90;;;4.00;93.80;;;;;;5103117;28;20245;-74
2023/12/24 03:13:53;;;;;;;0.90;0.80;;;4.00;93.80;;;;;;5096535;28;20200;-74
2023/12/24 03:16:20;;;;;;;1.07;0.70;;;4.00;93.90;;;;;;5111420;28;20248;-74
2023/12/24 03:18:47;;;;;;;1.00;0.80;;;4.00;93.90;;;;;;5096331;28;20621;-74
2023/12/24 03:21:14;;;;;;;0.70;0.67;;;4.00;93.90;;;;;;5099336;28;20342;-74
2023/12/24 03:23:41;;;;;;;1.43;0.70;;;4.00;93.90;;;;;;5104874;28;20203;-74
2023/12/24 03:26:19;;;;;;;1.30;0.80;;;4.10;94.00;;;;;;5078380;28;20198;-74
2023/12/24 03:28:48;;;;;;;1.30;1.20;;;4.10;94.00;;;;;;5096306;28;20199;-75
2023/12/24 03:31:15;;;;;;;1.37;0.97;;;4.00;93.90;;;;;;5095023;28;20282;-74
2023/12/24 03:33:42;;;;;;;2.00;0.83;;;4.00;94.20;;;;;;5111535;27;20601;-74
2023/12/24 03:36:10;;;;;;;2.13;1.10;;;4.00;93.80;;;;;;5100174;28;20259;-74
2023/12/24 03:38:37;;;;;;;1.67;1.20;;;4.00;93.80;;;;;;5111377;27;20705;-74
2023/12/24 03:41:04;;;;;;;1.00;0.80;;;3.90;93.70;;;;;;5100285;28;20249;-74
2023/12/24 03:43:32;;;;;;;1.03;0.90;;;3.90;93.80;;;;;;5096502;27;20205;-74
2023/12/24 03:46:00;;;;;;;2.17;1.40;;;3.90;93.90;;;;;;5102056;28;20297;-74
2023/12/24 03:48:27;;;;;;;1.03;0.90;;;3.90;93.90;;;;;;5091123;28;20593;-74
2023/12/24 03:50:54;;;;;;;1.73;0.80;;;3.90;93.80;;;;;;5097548;28;20273;-74
2023/12/24 03:53:21;;;;;;;2.20;1.27;;;3.80;93.80;;;;;;5090360;28;20231;-74
2023/12/24 03:55:48;;;;;;;1.73;1.23;;;3.80;93.90;;;;;;5101265;28;20307;-74
2023/12/24 03:58:15;;;;;;;1.47;1.00;;;3.70;93.90;;;;;;5103353;28;20200;-74
2023/12/24 04:00:42;;;;;;;3.67;1.43;;;3.70;93.90;;;;;;5096193;28;20203;-74
2023/12/24 04:03:11;;;;;;;1.73;1.27;;;3.70;93.90;;;;;;5106844;27;20198;-74
2023/12/24 04:05:38;;;;;;;1.87;1.43;;;3.80;93.90;;;;;;5107847;27;20210;-74
2023/12/24 04:08:05;;;;;;;1.40;1.10;;;3.70;93.90;;;;;;5107443;28;20189;-74
2023/12/24 04:10:33;;;;;;;1.30;1.20;;;3.70;93.90;;;;;;5076717;28;20646;-75
2023/12/24 04:13:02;;;;;;;2.23;1.10;;;3.70;94.00;;;;;;5087929;28;20253;-75
2023/12/24 04:15:29;;;;;;;1.87;1.10;;;3.70;94.00;;;;;;5089377;28;20299;-74
2023/12/24 04:17:56;;;;;;;2.20;1.17;;;3.70;94.10;;;;;;5077646;28;20653;-73
2023/12/24 04:20:24;;;;;;;1.90;1.20;;;3.70;94.10;;;;;;5104481;28;20222;-73
2023/12/24 04:22:52;;;;;;;2.20;1.10;;;3.70;94.20;;;;;;5081087;28;20204;-74
2023/12/24 04:25:19;;;;;;;1.30;1.20;;;3.70;94.30;;;;;;5091701;28;20619;-74
2023/12/24 04:27:46;;;;;;;2.47;1.30;;;3.70;94.40;;;;;;5076150;28;20205;-74
2023/12/24 04:30:13;;;;;;;1.80;1.20;;;3.70;94.40;;;;;;5100753;28;20199;-73
2023/12/24 04:32:42;;;;;;;3.03;1.33;;;3.70;94.50;;;;;;5077717;28;20228;-74
2023/12/24 04:35:10;;;;;;;2.00;1.20;;;3.60;94.60;;;;;;5098479;28;20195;-73
2023/12/24 04:37:38;;;;;;;2.77;1.40;;;3.60;94.70;;;;;;5085646;28;20236;-73
2023/12/24 04:40:06;;;;;;;2.53;1.30;;;3.70;94.80;;;;;;5095575;28;20197;-74
2023/12/24 04:42:35;;;;;;;1.37;1.00;;;3.60;95.00;;;;;;5092156;28;20212;-74
2023/12/24 04:45:02;;;;;;;7.00;1.53;;;3.60;95.10;;;;;;5080861;28;20236;-74
2023/12/24 04:47:29;;;;;;;1.37;1.20;;;3.70;95.30;;;;;;5110237;28;20720;-74
2023/12/24 04:49:57;;;;;;;5.50;1.30;;;3.70;95.30;;;;;;5093059;28;20216;-73
2023/12/24 04:52:24;;;;;;;2.90;1.27;;;3.70;95.50;;;;;;5082726;28;20212;-74
2023/12/24 04:54:52;;;;;;;3.13;1.03;;;3.60;95.90;;;;;;5112731;28;20528;-73
2023/12/24 04:57:19;;;;;;;3.17;1.43;;;3.60;95.70;;;;;;5105311;28;20478;-74
2023/12/24 04:59:46;;;;;;;2.07;1.10;;;3.70;95.90;;;;;;5090932;28;20323;-75
2023/12/24 05:02:13;;;;;;;1.60;1.17;;;3.70;95.90;;;;;;5091332;28;20558;-74
2023/12/24 05:04:40;;;;;;;1.83;1.17;;;3.60;96.00;;;;;;5085349;28;20221;-74
2023/12/24 05:07:07;;;;;;;1.70;1.10;;;3.70;96.10;;;;;;5079011;28;20196;-74
2023/12/24 05:09:35;;;;;;;1.27;0.90;;;3.60;96.20;;;;;;5089362;28;20196;-73
2023/12/24 05:12:03;;;;;;;2.20;1.10;;;3.60;96.30;;;;;;5086179;28;20204;-74
2023/12/24 05:14:31;;;;;;;2.27;1.00;;;3.60;96.40;;;;;;5110211;28;20185;-73
2023/12/24 05:16:59;;;;;;;2.77;1.00;;;3.70;96.50;;;;;;5087738;28;20641;-74
2023/12/24 05:19:26;;;;;;;1.87;1.30;;;3.70;96.60;;;;;;5102566;28;20212;-74
2023/12/24 05:21:53;;;;;;;1.57;1.00;;;3.70;96.60;;;;;;5107503;28;20196;-74
2023/12/24 05:24:20;;;;;;;1.30;1.20;;;3.70;96.70;;;;;;5087205;28;20193;-74
2023/12/24 05:26:47;;;;;;;1.20;1.10;;;3.70;96.80;;;;;;5094550;28;20210;-74
2023/12/24 05:29:15;;;;;;;1.30;0.83;;;3.70;96.80;;;;;;5090456;27;20308;-74
2023/12/24 05:31:43;;;;;;;3.33;1.30;;;3.60;96.80;;;;;;5094339;28;20219;-74
2023/12/24 05:34:10;;;;;;;2.47;1.50;;;3.70;97.10;;;;;;5093670;28;20231;-74
2023/12/24 05:36:38;;;;;;;1.10;1.00;;;3.70;97.00;;;;;;5101082;28;20565;-74
2023/12/24 05:39:06;;;;;;;1.07;1.00;;;3.70;97.10;;;;;;5105998;28;20498;-74
2023/12/24 05:41:33;;;;;;;2.90;1.00;;;3.70;97.10;;;;;;5093733;28;20242;-74
2023/12/24 05:44:00;;;;;;;1.37;0.80;;;3.70;97.10;;;;;;5109900;27;20192;-74
2023/12/24 05:46:29;;;;;;;1.23;0.90;;;3.70;97.20;;;;;;5114242;27;20221;-74
2023/12/24 05:48:56;;;;;;;2.33;1.10;;;3.70;97.20;;;;;;5106913;28;20587;-74
2023/12/24 05:51:23;;;;;;;2.13;1.30;;;3.70;97.30;;;;;;5090258;28;20223;-74
2023/12/24 05:53:50;;;;;;;1.47;1.10;;;3.80;97.30;;;;;;5097033;28;20211;-74
2023/12/24 05:56:17;;;;;;;2.17;1.10;;;3.80;97.30;;;;;;5105066;27;20261;-74
2023/12/24 05:58:44;;;;;;;1.37;1.20;;;3.80;97.40;;;;;;5094261;28;20209;-74
2023/12/24 06:01:11;;;;;;;3.07;1.57;;;3.90;97.40;;;;;;5098937;28;20254;-74
2023/12/24 06:03:40;;;;;;;2.97;1.30;;;3.90;97.30;;;;;;5103714;28;20219;-74
2023/12/24 06:06:07;;;;;;;1.97;1.10;;;3.90;97.30;;;;;;5095063;28;20633;-74
2023/12/24 06:08:34;;;;;;;3.23;1.40;;;3.90;97.30;;;;;;5092381;28;20257;-74
2023/12/24 06:11:01;;;;;;;2.57;1.30;;;3.90;97.40;;;;;;5083386;28;20230;-74
2023/12/24 06:13:28;;;;;;;1.53;1.13;;;3.90;97.40;;;;;;5113215;28;20196;-74
2023/12/24 06:15:55;;;;;;;2.97;1.20;;;3.90;97.40;;;;;;5112347;28;20200;-74
2023/12/24 06:18:22;;;;;;;2.13;1.07;;;3.90;97.40;;;;;;5111164;28;20707;-74
2023/12/24 06:20:50;;;;;;;3.27;1.67;;;3.90;97.40;;;;;;5112545;28;20189;-74
2023/12/24 06:23:17;;;;;;;1.77;1.23;;;3.90;97.50;;;;;;5091136;28;20204;-74
2023/12/24 06:25:44;;;;;;;3.70;1.20;;;3.90;97.50;;;;;;5104742;27;20221;-73
2023/12/24 06:28:12;;;;;;;1.67;1.13;;;4.00;97.50;;;;;;5108668;28;20200;-74
2023/12/24 06:30:39;;;;;;;4.07;1.20;;;4.00;97.50;;;;;;5112799;27;20253;-74
2023/12/24 06:33:06;;;;;;;2.07;1.30;;;3.90;97.50;;;;;;5108482;27;20204;-74
2023/12/24 06:35:33;;;;;;;3.37;1.40;;;4.00;97.60;;;;;;5112668;28;20205;-74
2023/12/24 06:38:01;;;;;;;4.03;1.40;;;4.00;97.70;;;;;;5104161;28;20194;-74
2023/12/24 06:40:28;;;;;;;1.27;1.17;;;4.00;97.70;;;;;;5093768;27;20204;-74
2023/12/24 06:42:55;;;;;;;2.90;1.43;;;4.00;97.80;;;;;;5111187;28;20635;-74
2023/12/24 06:45:22;;;;;;;2.30;1.60;;;4.00;97.80;;;;;;5115360;27;20673;-74
2023/12/24 06:47:49;;;;;;;2.87;1.33;;;4.00;97.90;;;;;;5095475;27;20228;-74
2023/12/24 06:50:17;;;;;;;1.60;1.00;;;4.00;98.00;;;;;;5117169;27;20307;-75
2023/12/24 06:52:44;;;;;;;1.90;1.23;;;4.00;98.00;;;;;;5114492;27;20184;-75
2023/12/24 06:55:13;;;;;;;3.20;1.37;;;4.00;98.10;;;;;;5111069;28;20200;-74
2023/12/24 06:57:40;;;;;;;2.17;1.20;;;4.00;98.10;;;;;;5104784;28;20206;-74
2023/12/24 07:00:09;;;;;;;2.90;1.67;;;4.00;98.20;;;;;;5107094;28;20208;-74
2023/12/24 07:02:36;;;;;;;2.07;1.40;;;4.10;98.40;;;;;;5079755;28;20197;-74
2023/12/24 07:05:03;;;;;;;1.90;1.13;;;4.10;98.40;;;;;;5101107;28;20199;-74
2023/12/24 07:07:30;;;;;;;3.10;1.67;;;4.10;98.40;;;;;;5103968;28;20210;-74
2023/12/24 07:09:57;;;;;;;2.73;1.33;;;4.10;98.50;;;;;;5091024;27;20206;-74
2023/12/24 07:12:27;;;;;;;2.40;1.30;;;4.10;98.50;;;;;;5102381;27;20183;-74
2023/12/24 07:14:54;;;;;;;1.13;1.00;;;4.10;98.50;;;;;;5110249;28;20197;-74
2023/12/24 07:17:21;;;;;;;2.80;1.50;;;4.10;98.60;;;;;;5093915;28;20287;-75
2023/12/24 07:19:48;;;;;;;4.00;1.23;;;4.10;98.70;;;;;;5099501;28;20690;-74
2023/12/24 07:22:16;;;;;;;4.73;1.50;;;4.10;98.70;;;;;;5110605;27;20295;-74
2023/12/24 07:24:43;;;;;;;2.77;1.50;;;4.10;98.70;;;;;;5104811;28;20197;-74
2023/12/24 07:27:10;;;;;;;3.37;1.37;;;4.10;98.70;;;;;;5103352;27;20245;-74
2023/12/24 07:29:41;;;;;;;3.63;1.50;;;4.10;98.80;;;;;;5103483;28;20196;-74
2023/12/24 07:32:08;;;;;;;3.77;1.47;;;4.20;98.90;;;;;;5101246;27;20845;-74
2023/12/24 07:34:35;;;;;;;3.80;1.50;;;4.20;98.90;;;;;;5089122;28;20196;-74
2023/12/24 07:37:02;;;;;;;3.23;1.30;;;4.20;98.90;;;;;;5089751;28;20211;-75
2023/12/24 07:39:29;;;;;;;4.63;1.43;;;4.20;98.90;;;;;;5103105;28;20310;-74
2023/12/24 07:41:56;;;;;;;1.80;1.37;;;4.20;99.00;;;;;;5108692;27;20600;-74
2023/12/24 07:44:23;;;;;;;2.10;1.30;;;4.20;99.10;;;;;;5110849;28;20275;-74
2023/12/24 07:46:53;;;;;;;1.57;1.40;;;4.10;99.10;;;;;;5106019;27;20195;-74
2023/12/24 07:49:20;;;;;;;4.73;1.53;;;4.10;99.20;;;;;;5097204;28;20647;-74
2023/12/24 07:51:47;;;;;;;1.80;1.50;;;4.20;99.20;;;;;;5092376;28;20277;-75
2023/12/24 07:54:14;;;;;;;3.27;1.80;;;4.10;99.30;;;;;;5091215;28;20207;-74
2023/12/24 07:56:41;;;;;;;4.07;2.17;;;4.20;99.30;;;;;;5101272;27;20201;-74
2023/12/24 07:59:08;;;;;;;6.57;2.77;;;4.20;99.40;;;;;;5108590;28;20216;-74
2023/12/24 08:01:37;;;;;;;4.90;2.60;;;4.20;99.40;;;;;;5101217;27;20224;-74
2023/12/24 08:04:08;;;;;;;4.23;2.23;;;4.20;99.40;;;;;;5096763;28;20231;-74
2023/12/24 08:06:35;;;;;;;5.80;2.67;;;4.20;99.40;;;;;;5102056;28;20213;-74
2023/12/24 08:09:03;;;;;;;3.77;1.90;;;4.10;99.40;;;;;;5101594;28;20639;-74
2023/12/24 08:11:30;;;;;;;3.37;2.17;;;4.10;99.50;;;;;;5102861;27;20199;-73
2023/12/24 08:13:57;;;;;;;4.07;2.10;;;4.10;99.90;;;;;;5106515;28;20205;-74
2023/12/24 08:16:24;;;;;;;6.30;2.63;;;4.10;99.60;;;;;;5099410;28;20192;-74
2023/12/24 08:18:52;;;;;;;6.10;2.70;;;4.10;99.60;;;;;;5106162;28;20282;-74
2023/12/24 08:21:20;;;;;;;4.67;2.00;;;4.20;99.60;;;;;;5108730;28;20299;-74
2023/12/24 08:23:48;;;;;;;5.17;2.50;;;4.10;99.60;;;;;;5092122;28;20197;-74
2023/12/24 08:26:15;;;;;;;2.07;1.80;;;4.10;99.70;;;;;;5089556;28;20195;-74
2023/12/24 08:28:42;;;;;;;4.23;2.57;;;4.10;99.80;;;;;;5110895;28;20209;-74
2023/12/24 08:31:10;;;;;;;3.57;2.10;;;4.10;99.90;;;;;;5109895;28;20233;-74
2023/12/24 08:33:37;;;;;;;4.10;2.17;;;4.00;99.90;;;;;;5099845;28;20253;-74
2023/12/24 08:36:06;;;;;;;3.43;2.10;;;4.00;99.90;;;;;;5091625;28;20624;-74
2023/12/24 08:38:35;;;;;;;6.40;2.70;;;4.00;99.90;;;;;;5092723;28;20196;-74
2023/12/24 08:41:02;;;;;;;7.63;2.70;;;4.00;99.90;;;;;;5097503;28;20193;-74
2023/12/24 08:43:29;;;;;;;3.93;2.40;;;4.00;99.90;;;;;;5110877;28;20256;-74
2023/12/24 08:45:59;;;;;;;4.50;2.27;;;4.00;99.90;;;;;;5103289;28;20207;-74
2023/12/24 08:48:26;;;;;;;6.53;2.60;;;4.10;99.90;;;;;;5110319;28;20207;-74
2023/12/24 08:50:53;;;;;;;4.77;2.43;;;4.10;99.90;;;;;;5097126;28;20255;-74
2023/12/24 08:53:20;;;;;;;5.73;2.53;;;4.10;99.90;;;;;;5108786;28;20663;-74
2023/12/24 08:55:49;;;;;;;4.77;2.73;;;4.10;99.90;;;;;;5112432;28;20245;-74
2023/12/24 08:58:17;;;;;;;4.40;2.60;;;4.10;99.90;;;;;;5106774;28;20205;-74
2023/12/24 09:00:44;;;;;;;6.50;2.93;;;4.10;99.90;;;;;;5092536;28;20345;-73
2023/12/24 09:03:11;;;;;;;6.93;3.30;;;4.10;99.90;;;;;;5091847;28;20253;-74
2023/12/24 09:05:38;;;;;;;9.53;3.27;;;4.20;99.90;;;;;;5106542;28;20188;-74
2023/12/24 09:08:05;;;;;;;6.13;3.30;;;4.20;99.90;;;;;;5111678;28;20666;-73
2023/12/24 09:10:32;;;;;;;4.30;3.10;;;4.20;99.90;;;;;;5108274;28;20205;-74
2023/12/24 09:13:01;;;;;;;3.80;2.47;;;4.20;99.90;;;;;;5118359;27;20188;-74
2023/12/24 09:15:28;;;;;;;4.07;2.13;;;4.20;99.90;;;;;;5109303;28;20196;-74
2023/12/24 09:17:56;;;;;;;4.63;2.40;;;4.20;99.90;;;;;;5118632;27;20199;-74
2023/12/24 09:20:24;;;;;;;4.50;2.77;;;4.20;99.90;;;;;;5107152;28;20205;-74
2023/12/24 09:22:51;;;;;;;3.87;2.40;;;4.20;99.90;;;;;;5117646;27;20620;-75
2023/12/24 09:25:19;;;;;;;3.00;2.60;;;4.20;99.90;;;;;;5095349;28;20196;-74
2023/12/24 09:27:46;;;;;;;4.80;2.73;;;4.30;99.90;;;;;;5103262;27;20193;-74
2023/12/24 09:30:15;;;;;;;6.63;3.50;;;4.30;99.90;;;;;;5105472;28;20614;-75
2023/12/24 09:32:46;;;;;;;8.20;4.47;;;4.40;99.90;;;;;;5097904;27;20211;-74
2023/12/24 09:35:13;;;;;;;10.03;4.50;;;4.40;99.90;;;;;;5105263;28;20247;-73
2023/12/24 09:37:40;;;;;;;12.87;5.63;;;5.70;99.90;;;;;;5105709;28;20208;-74
2023/12/24 09:40:08;;;;;;;11.87;6.10;;;4.60;99.90;;;;;;5107646;28;20218;-74
2023/12/24 09:42:36;;;;;;;12.37;5.50;;;4.60;99.90;;;;;;5093747;27;20611;-74
2023/12/24 09:45:03;;;;;;;13.13;6.70;;;4.60;99.90;;;;;;5088582;28;20207;-73
2023/12/24 09:47:31;;;;;;;13.07;6.80;;;4.60;99.90;;;;;;5109908;27;20197;-73
2023/12/24 09:50:00;;;;;;;9.57;5.37;;;4.60;99.90;;;;;;5113268;27;20188;-73
2023/12/24 09:52:28;;;;;;;11.10;5.80;;;4.60;99.90;;;;;;5117236;27;20196;-73
2023/12/24 09:54:56;;;;;;;10.83;5.57;;;4.60;99.90;;;;;;5113811;27;20197;-74
2023/12/24 09:57:23;;;;;;;7.57;4.90;;;4.70;99.90;;;;;;5105296;27;20289;-73
2023/12/24 09:59:50;;;;;;;8.67;5.23;;;4.70;99.90;;;;;;5088236;28;20219;-74
2023/12/24 10:02:17;;;;;;;8.50;5.50;;;4.70;99.90;;;;;;5092736;28;20679;-74
2023/12/24 10:04:46;;;;;;;6.87;4.90;;;4.80;99.90;;;;;;5093093;28;20200;-74
2023/12/24 10:07:13;;;;;;;8.33;4.80;;;4.80;99.90;;;;;;5083818;28;20203;-74
2023/12/24 10:09:45;;;;;;;6.83;4.60;;;4.80;99.90;;;;;;5094607;28;20200;-73
2023/12/24 10:12:12;;;;;;;9.43;4.60;;;4.80;99.90;;;;;;5098651;28;20684;-74
2023/12/24 10:14:40;;;;;;;8.03;4.40;;;4.80;99.90;;;;;;5103795;28;20280;-74
2023/12/24 10:17:08;;;;;;;5.90;4.03;;;4.80;99.90;;;;;;5078231;28;20211;-75
2023/12/24 10:19:35;;;;;;;6.50;3.60;;;4.90;99.90;;;;;;5109549;27;20213;-75
2023/12/24 10:22:05;;;;;;;7.60;3.80;;;4.90;99.90;;;;;;5102915;28;20564;-74
2023/12/24 10:24:34;;;;;;;8.13;4.00;;;4.90;99.90;;;;;;5087685;28;20198;-75
2023/12/24 10:27:06;;;;;;;8.43;4.43;;;4.80;99.90;;;;;;5107529;28;20200;-75
2023/12/24 10:29:34;;;;;;;6.13;4.10;;;4.90;99.90;;;;;;5109721;28;20205;-74
2023/12/24 10:32:01;;;;;;;4.43;3.40;;;4.90;99.90;;;;;;5087625;28;20209;-75
2023/12/24 10:34:29;;;;;;;5.67;3.80;;;4.80;99.90;;;;;;5114067;27;20221;-74
2023/12/24 10:36:58;;;;;;;5.23;3.20;;;4.80;99.90;;;;;;5081010;28;20231;-74
2023/12/24 10:39:26;;;;;;;4.37;3.10;;;4.90;99.90;;;;;;5097252;28;20615;-75
2023/12/24 10:41:55;;;;;;;7.47;3.53;;;4.90;99.90;;;;;;5102519;28;20325;-75
2023/12/24 10:44:22;;;;;;;5.33;2.97;;;4.90;99.90;;;;;;5107843;28;20415;-74
2023/12/24 10:46:49;;;;;;;4.20;3.00;;;4.90;99.90;;;;;;5094628;28;20233;-75
2023/12/24 10:49:17;;;;;;;5.10;3.17;;;4.90;99.90;;;;;;5105042;28;20192;-74
2023/12/24 10:51:44;;;;;;;5.47;3.20;;;4.90;99.90;;;;;;5100412;28;20694;-74
2023/12/24 10:54:11;;;;;;;6.50;3.60;;;5.00;99.90;;;;;;5078185;28;20209;-74
2023/12/24 10:56:51;;;;;;;4.53;3.47;;;5.00;99.90;;;;;;5097264;28;20197;-75
2023/12/24 10:59:41;;;;;;;4.33;3.13;;;5.00;99.90;;;;;;5089702;28;20218;-75
2023/12/24 11:02:12;;;;;;;10.53;5.07;;;5.00;99.90;;;;;;5098043;28;20219;-75
2023/12/24 11:04:43;;;;;;;16.27;6.93;;;5.00;99.90;;;;;;5102003;28;20205;-75
2023/12/24 11:07:10;;;;;;;8.63;5.43;;;5.00;99.90;;;;;;5086999;28;20203;-75
2023/12/24 11:09:44;;;;;;;12.30;6.23;;;5.00;99.90;;;;;;5092825;28;20200;-75
2023/12/24 11:12:30;;;;;;;12.60;6.73;;;5.20;99.90;;;;;;5089517;28;20641;-75
2023/12/24 11:14:57;;;;;;;9.53;5.10;;;5.00;99.90;;;;;;5099823;27;20254;-75
2023/12/24 11:17:49;;;;;;;10.67;6.10;;;5.00;99.90;;;;;;5109461;28;20205;-74
2023/12/24 11:20:40;;;;;;;10.50;5.40;;;5.00;99.90;;;;;;5100426;27;20210;-73
2023/12/24 11:23:12;;;;;;;7.60;4.47;;;4.90;99.90;;;;;;5095565;27;20197;-74
2023/12/24 11:25:40;;;;;;;11.20;5.97;;;4.90;99.90;;;;;;5088556;28;20204;-73
2023/12/24 11:28:12;;;;;;;13.23;7.70;;;5.00;99.90;;;;;;5100698;27;20194;-73
2023/12/24 11:31:08;;;;;;;16.70;8.93;;;5.00;99.90;;;;;;5107525;27;20219;-74
2023/12/24 11:33:48;;;;;;;22.17;9.20;;;5.00;99.90;;;;;;5096794;28;20195;-73
2023/12/24 11:36:18;;;;;;;13.47;7.53;;;5.10;99.90;;;;;;5072933;28;20207;-73
2023/12/24 11:38:48;;;;;;;17.27;9.10;;;5.10;99.90;;;;;;5111185;28;20191;-74
2023/12/24 11:41:16;;;;;;;20.50;9.50;;;5.10;99.90;;;;;;5110544;28;20725;-73
2023/12/24 11:43:53;;;;;;;18.20;9.00;;;5.10;99.90;;;;;;5092767;28;20200;-74
2023/12/24 11:46:21;;;;;;;12.80;6.73;;;5.10;99.90;;;;;;5104671;28;20696;-74
2023/12/24 11:48:48;;;;;;;14.00;7.63;;;5.10;99.90;;;;;;5108659;27;20204;-74
2023/12/24 11:51:15;;;;;;;15.13;7.50;;;5.10;99.90;;;;;;5107754;27;20226;-73
2023/12/24 11:53:43;;;;;;;14.17;7.30;;;5.20;99.90;;;;;;5092375;27;20209;-74
2023/12/24 11:56:13;;;;;;;12.13;6.10;;;5.20;99.90;;;;;;5089308;28;20243;-74
2023/12/24 11:58:41;;;;;;;13.87;6.80;;;5.20;99.90;;;;;;5088555;28;20598;-74
2023/12/24 12:01:10;;;;;;;12.90;6.67;;;5.20;99.90;;;;;;5093356;28;20203;-73
2023/12/24 12:03:38;;;;;;;11.20;6.23;;;5.20;99.90;;;;;;5087976;28;20201;-74
2023/12/24 12:06:05;;;;;;;11.93;6.33;;;5.20;99.90;;;;;;5110486;28;20198;-74
2023/12/24 12:08:33;;;;;;;9.00;5.40;;;5.20;99.90;;;;;;5105262;28;20223;-73
2023/12/24 12:11:00;;;;;;;9.77;5.43;;;5.30;99.90;;;;;;5099081;28;20198;-74
2023/12/24 12:13:28;;;;;;;11.57;5.00;;;5.30;99.90;;;;;;5097508;28;20206;-75
2023/12/24 12:15:56;;;;;;;12.10;5.30;;;5.30;99.90;;;;;;5115289;27;20193;-74
2023/12/24 12:18:24;;;;;;;6.43;3.87;;;5.40;99.90;;;;;;5107738;28;20193;-74
2023/12/24 12:20:51;;;;;;;5.47;3.37;;;5.40;99.90;;;;;;5097576;28;20223;-73
2023/12/24 12:23:19;;;;;;;5.70;3.60;;;5.40;99.90;;;;;;5104787;28;20658;-74
2023/12/24 12:25:46;;;;;;;4.97;3.03;;;5.40;99.90;;;;;;5102252;28;20505;-75
2023/12/24 12:28:14;;;;;;;5.37;3.53;;;5.40;99.90;;;;;;5095854;28;20206;-74
2023/12/24 12:30:41;;;;;;;4.23;2.90;;;5.40;99.90;;;;;;5109294;28;20250;-74
2023/12/24 12:33:09;;;;;;;5.23;2.50;;;5.40;99.90;;;;;;5114327;27;20229;-74
2023/12/24 12:35:38;;;;;;;3.40;2.70;;;5.50;99.90;;;;;;5114424;27;20201;-74
2023/12/24 12:38:05;;;;;;;4.37;3.03;;;5.50;99.90;;;;;;5108296;28;20194;-74
2023/12/24 12:40:35;;;;;;;3.77;2.50;;;5.50;99.90;;;;;;5107488;27;20216;-74
2023/12/24 12:43:02;;;;;;;4.17;2.60;;;5.50;99.90;;;;;;5112877;28;20206;-74
2023/12/24 12:45:29;;;;;;;2.30;2.10;;;5.50;99.90;;;;;;5114565;27;20194;-74
2023/12/24 12:47:56;;;;;;;4.00;2.40;;;5.50;99.90;;;;;;5090440;28;20217;-73
2023/12/24 12:50:23;;;;;;;2.87;2.00;;;5.40;99.90;;;;;;5106861;27;20254;-74
2023/12/24 12:52:53;;;;;;;3.33;2.30;;;5.40;99.90;;;;;;5091385;28;20712;-74
2023/12/24 12:55:22;;;;;;;4.30;2.77;;;5.40;99.90;;;;;;5114792;28;20249;-74
2023/12/24 12:57:49;;;;;;;3.73;2.40;;;5.30;99.90;;;;;;5087235;28;20203;-73
2023/12/24 13:00:20;;;;;;;3.30;2.60;;;5.30;99.90;;;;;;5111480;27;20270;-74